Time;durP1;ratioP1;P1;durP2;ratioP2;P2;SDS_P1;SDS_P2;PMS_P1;PMS_P2;Temp;Humidity;BMP_temperature;BMP_pressure;BME280_temperature;BME280_humidity;BME280_pressure;Samples;Min_cycle;Max_cycle;Signal;HPM_P1;HPM_P2
2023/06/10 00:01:33;;;;;;;;;;;;;;;30.30;31.96;93779.38;5011049;28;7290;-55
2023/06/10 00:04:09;;;;;;;;;;;;;;;30.29;31.42;93783.47;5018684;28;9127;-55
2023/06/10 00:06:50;;;;;;;;;;;;;;;30.29;31.96;93785.50;5007624;28;7332;-54
2023/06/10 00:09:16;;;;;;;;;;;;;;;30.26;32.28;93786.59;5009511;28;9297;-55
2023/06/10 00:11:49;;;;;;;;;;;;;;;30.26;32.06;93779.03;5005514;28;7120;-55
2023/06/10 00:14:39;;;;;;;;;;;;;;;30.25;32.26;93785.88;5010775;28;7111;-55
2023/06/10 00:17:19;;;;;;;;;;;;;;;30.25;31.69;93796.25;5004521;28;7272;-55
2023/06/10 00:19:50;;;;;;;;;;;;;;;30.25;32.01;93785.16;5016596;28;9736;-55
2023/06/10 00:22:52;;;;;;;;;;;;;;;30.25;31.28;93794.22;5012084;28;7585;-55
2023/06/10 00:25:25;;;;;;;;;;;;;;;30.26;32.35;93794.94;5025106;28;7130;-55
2023/06/10 00:28:06;;;;;;;;;;;;;;;30.24;32.16;93786.44;5019506;28;7022;-55
2023/06/10 00:30:39;;;;;;;;;;;;;;;30.22;32.03;93789.75;5009186;28;7334;-55
2023/06/10 00:33:16;;;;;;;;;;;;;;;30.23;31.71;93780.13;5017383;28;7231;-55
2023/06/10 00:35:52;;;;;;;;;;;;;;;30.22;31.95;93783.47;5018214;28;9050;-55
2023/06/10 00:38:23;;;;;;;;;;;;;;;30.21;31.57;93785.50;5008819;28;8763;-55
2023/06/10 00:41:04;;;;;;;;;;;;;;;30.21;32.53;93777.19;5010322;28;8745;-55
2023/06/10 00:43:32;;;;;;;;;;;;;;;30.20;32.17;93786.06;5009108;28;7112;-55
2023/06/10 00:46:01;;;;;;;;;;;;;;;30.21;32.29;93777.19;5016404;28;9356;-55
2023/06/10 00:48:30;;;;;;;;;;;;;;;30.21;32.15;93779.94;5004970;28;8330;-55
2023/06/10 00:50:58;;;;;;;;;;;;;;;30.22;31.53;93784.22;5004779;28;6957;-55
2023/06/10 00:53:25;;;;;;;;;;;;;;;30.21;31.87;93785.50;5006171;28;7106;-55
2023/06/10 00:55:52;;;;;;;;;;;;;;;30.18;32.46;93778.31;5006348;28;9443;-55
2023/06/10 00:58:28;;;;;;;;;;;;;;;30.18;32.02;93772.00;5009848;28;7244;-55
2023/06/10 01:00:54;;;;;;;;;;;;;;;30.20;31.91;93774.97;5008656;28;9172;-55
2023/06/10 01:03:26;;;;;;;;;;;;;;;30.17;31.87;93771.25;5013707;28;8693;-55
2023/06/10 01:06:05;;;;;;;;;;;;;;;30.17;31.78;93774.03;5016484;28;8518;-55
2023/06/10 01:09:00;;;;;;;;;;;;;;;30.16;31.55;93775.34;5005167;28;9286;-55
2023/06/10 01:11:36;;;;;;;;;;;;;;;30.17;32.32;93776.81;5014272;28;7430;-55
2023/06/10 01:14:11;;;;;;;;;;;;;;;30.14;32.33;93772.41;5012107;28;9030;-55
2023/06/10 01:16:40;;;;;;;;;;;;;;;30.16;32.24;93777.38;5000188;28;9075;-55
2023/06/10 01:19:09;;;;;;;;;;;;;;;30.14;32.34;93772.41;5005060;28;9506;-55
2023/06/10 01:22:10;;;;;;;;;;;;;;;30.15;31.73;93773.84;5026838;28;7115;-55
2023/06/10 01:24:40;;;;;;;;;;;;;;;30.14;32.28;93772.41;4951284;28;9101;-55
2023/06/10 01:27:32;;;;;;;;;;;;;;;30.12;32.50;93772.22;4954466;28;7094;-54
2023/06/10 01:30:16;;;;;;;;;;;;;;;30.13;31.76;93770.91;4967149;28;7074;-55
2023/06/10 01:33:17;;;;;;;;;;;;;;;30.09;31.80;93765.00;4952465;28;7086;-55
2023/06/10 01:35:45;;;;;;;;;;;;;;;30.10;32.44;93772.00;4969103;28;7283;-55
2023/06/10 01:38:22;;;;;;;;;;;;;;;30.08;32.20;93766.28;4949218;28;7423;-54
2023/06/10 01:40:49;;;;;;;;;;;;;;;30.09;32.32;93770.53;4952323;28;7037;-55
2023/06/10 01:43:45;;;;;;;;;;;;;;;30.09;32.47;93770.53;4967905;28;7136;-54
2023/06/10 01:46:21;;;;;;;;;;;;;;;30.07;31.85;93767.59;4895866;29;6890;-55
2023/06/10 01:48:47;;;;;;;;;;;;;;;30.08;32.13;93776.66;4911366;29;7213;-55
2023/06/10 01:51:22;;;;;;;;;;;;;;;30.07;31.49;93784.22;4912688;29;7262;-55
2023/06/10 01:53:57;;;;;;;;;;;;;;;30.07;32.02;93778.69;4897526;29;9216;-55
2023/06/10 01:56:35;;;;;;;;;;;;;;;30.07;31.66;93775.91;4912744;29;7215;-55
2023/06/10 01:59:14;;;;;;;;;;;;;;;30.05;32.73;93772.94;4910742;29;9835;-55
2023/06/10 02:02:19;;;;;;;;;;;;;;;30.08;31.81;93780.16;4948857;29;7293;-55
2023/06/10 02:04:48;;;;;;;;;;;;;;;30.06;32.03;93777.19;4948983;29;7780;-55
2023/06/10 02:07:14;;;;;;;;;;;;;;;30.04;32.23;93777.00;4940504;29;9190;-55
2023/06/10 02:09:42;;;;;;;;;;;;;;;30.04;32.03;93788.09;4952006;28;7103;-55
2023/06/10 02:12:08;;;;;;;;;;;;;;;30.00;32.56;93775.91;4937711;28;7071;-55
2023/06/10 02:14:36;;;;;;;;;;;;;;;30.02;32.40;93779.59;4938458;28;7048;-55
2023/06/10 02:17:12;;;;;;;;;;;;;;;30.02;32.25;93779.59;4938472;28;7380;-55
2023/06/10 02:19:42;;;;;;;;;;;;;;;30.00;31.87;93782.19;4949833;28;8203;-55
2023/06/10 02:22:23;;;;;;;;;;;;;;;30.00;32.68;93784.97;4964692;28;7045;-55
2023/06/10 02:24:58;;;;;;;;;;;;;;;30.00;32.41;93790.50;5010793;28;7183;-55
2023/06/10 02:27:27;;;;;;;;;;;;;;;30.00;32.53;93796.06;5010213;28;7306;-55
2023/06/10 02:29:58;;;;;;;;;;;;;;;29.99;31.93;93794.59;5027096;28;7620;-55
2023/06/10 02:32:30;;;;;;;;;;;;;;;29.99;31.59;93794.59;5021962;28;7036;-55
2023/06/10 02:35:12;;;;;;;;;;;;;;;29.97;31.53;93788.81;5019366;28;8752;-55
2023/06/10 02:37:42;;;;;;;;;;;;;;;29.99;31.51;93793.84;5011274;28;7275;-55
2023/06/10 02:40:11;;;;;;;;;;;;;;;29.97;31.89;93788.09;5022867;28;9091;-55
2023/06/10 02:42:43;;;;;;;;;;;;;;;29.97;31.71;93797.16;5008779;28;9033;-55
2023/06/10 02:45:12;;;;;;;;;;;;;;;29.99;32.64;93797.34;5009367;28;7040;-55
2023/06/10 02:47:39;;;;;;;;;;;;;;;29.98;32.07;93795.13;5013737;28;7230;-55
2023/06/10 02:50:17;;;;;;;;;;;;;;;29.96;32.48;93790.13;5022311;28;8576;-55
2023/06/10 02:53:02;;;;;;;;;;;;;;;29.95;31.86;93794.19;5011460;28;9086;-55
2023/06/10 02:55:49;;;;;;;;;;;;;;;29.95;32.71;93804.56;5014063;28;7061;-55
2023/06/10 02:58:16;;;;;;;;;;;;;;;29.94;31.86;93814.16;5008353;28;7115;-55
2023/06/10 03:01:10;;;;;;;;;;;;;;;29.94;32.45;93809.38;5008617;28;7320;-55
2023/06/10 03:03:42;;;;;;;;;;;;;;;29.93;31.76;93809.94;5011129;28;8989;-55
2023/06/10 03:06:12;;;;;;;;;;;;;;;29.93;31.43;93816.19;5007425;28;7486;-55
2023/06/10 03:08:48;;;;;;;;;;;;;;;29.91;31.49;93809.72;5011306;28;7218;-55
2023/06/10 03:11:15;;;;;;;;;;;;;;;29.90;32.31;93813.78;5005008;28;8874;-55
2023/06/10 03:13:53;;;;;;;;;;;;;;;29.91;32.48;93816.00;5021936;28;7253;-55
2023/06/10 03:16:20;;;;;;;;;;;;;;;29.89;31.53;93824.13;5010034;28;7056;-55
2023/06/10 03:18:54;;;;;;;;;;;;;;;29.89;32.10;93820.63;5009140;28;7068;-55
2023/06/10 03:21:20;;;;;;;;;;;;;;;29.84;31.87;93827.81;5006437;28;7233;-55
2023/06/10 03:24:18;;;;;;;;;;;;;;;29.84;32.62;93830.59;5004238;28;7198;-55
2023/06/10 03:26:57;;;;;;;;;;;;;;;29.83;31.90;93837.44;4995907;28;7192;-55
2023/06/10 03:29:24;;;;;;;;;;;;;;;29.82;31.83;93835.97;5011388;28;8306;-55
2023/06/10 03:32:02;;;;;;;;;;;;;;;29.80;31.96;93836.50;5010592;28;8663;-54
2023/06/10 03:35:14;;;;;;;;;;;;;;;29.79;32.07;93842.63;5012342;28;7151;-55
2023/06/10 03:37:40;;;;;;;;;;;;;;;29.83;32.02;93843.00;4983951;28;7248;-55
2023/06/10 03:40:08;;;;;;;;;;;;;;;29.77;32.51;93839.66;4976151;28;7505;-55
2023/06/10 03:42:47;;;;;;;;;;;;;;;29.77;32.49;93850.75;4975790;28;7222;-54
2023/06/10 03:45:13;;;;;;;;;;;;;;;29.74;32.74;93846.28;4991990;28;9706;-55
2023/06/10 03:47:43;;;;;;;;;;;;;;;29.72;32.67;93843.31;4974750;28;7030;-55
2023/06/10 03:50:17;;;;;;;;;;;;;;;29.72;32.56;93855.16;4978196;28;8514;-54
2023/06/10 03:52:58;;;;;;;;;;;;;;;29.68;32.55;93845.72;4989635;28;7043;-54
2023/06/10 03:55:44;;;;;;;;;;;;;;;29.72;32.84;93848.84;4993105;28;8261;-54
2023/06/10 03:58:21;;;;;;;;;;;;;;;29.67;32.70;93853.28;4988140;28;7284;-54
2023/06/10 04:00:56;;;;;;;;;;;;;;;29.66;32.55;93853.84;4992329;28;7318;-55
2023/06/10 04:03:41;;;;;;;;;;;;;;;29.66;32.22;93859.38;4974653;28;8727;-55
2023/06/10 04:06:22;;;;;;;;;;;;;;;29.66;32.32;93851.06;4984589;28;9020;-55
2023/06/10 04:08:49;;;;;;;;;;;;;;;29.65;32.30;93860.66;4989501;28;7054;-55
2023/06/10 04:11:24;;;;;;;;;;;;;;;29.64;32.22;93859.19;4974758;28;7112;-55
2023/06/10 04:13:52;;;;;;;;;;;;;;;29.65;32.78;93863.44;4990937;28;6860;-54
2023/06/10 04:16:27;;;;;;;;;;;;;;;29.63;32.42;93861.22;5012363;28;9620;-55
2023/06/10 04:19:12;;;;;;;;;;;;;;;29.63;32.46;93858.44;5009287;28;7271;-55
2023/06/10 04:21:44;;;;;;;;;;;;;;;29.64;31.97;93865.47;5020886;28;9109;-55
2023/06/10 04:24:21;;;;;;;;;;;;;;;29.63;32.36;93866.00;5011034;28;7105;-55
2023/06/10 04:26:47;;;;;;;;;;;;;;;29.63;32.22;93874.31;5009593;28;6958;-55
2023/06/10 04:29:17;;;;;;;;;;;;;;;29.62;32.22;93870.81;5025359;28;9517;-55
2023/06/10 04:32:01;;;;;;;;;;;;;;;29.62;32.30;93867.31;5010855;28;9083;-55
2023/06/10 04:34:30;;;;;;;;;;;;;;;29.61;32.81;93874.13;5022688;28;7657;-55
2023/06/10 04:36:56;;;;;;;;;;;;;;;29.60;32.29;93876.16;5007469;28;9108;-54
2023/06/10 04:39:24;;;;;;;;;;;;;;;29.58;32.69;93872.47;5005078;28;7244;-55
2023/06/10 04:41:50;;;;;;;;;;;;;;;29.59;32.16;93874.69;5014617;28;7175;-55
2023/06/10 04:44:18;;;;;;;;;;;;;;;29.60;32.64;93876.16;4999647;28;7152;-55
2023/06/10 04:46:45;;;;;;;;;;;;;;;29.60;32.33;93875.44;5021699;28;9655;-55
2023/06/10 04:49:14;;;;;;;;;;;;;;;29.60;32.40;93878.22;5002866;28;7522;-55
2023/06/10 04:51:52;;;;;;;;;;;;;;;29.59;32.38;93877.47;5009012;28;9009;-55
2023/06/10 04:54:19;;;;;;;;;;;;;;;29.59;32.39;93879.50;5019562;28;7022;-55
2023/06/10 04:56:48;;;;;;;;;;;;;;;29.58;32.93;93878.75;5010294;28;7184;-55
2023/06/10 04:59:43;;;;;;;;;;;;;;;29.59;32.80;93887.81;5008358;28;9408;-55
2023/06/10 05:02:10;;;;;;;;;;;;;;;29.55;32.93;93885.41;4970118;28;7612;-55
2023/06/10 05:04:46;;;;;;;;;;;;;;;29.58;33.03;93886.34;4981359;28;9061;-55
2023/06/10 05:07:12;;;;;;;;;;;;;;;29.58;32.28;93889.84;4982892;28;7364;-55
2023/06/10 05:09:57;;;;;;;;;;;;;;;29.59;32.62;93902.41;4970966;28;9366;-55
2023/06/10 05:12:22;;;;;;;;;;;;;;;29.58;33.36;93897.44;4988593;28;9064;-55
2023/06/10 05:14:55;;;;;;;;;;;;;;;29.60;33.62;93897.63;4972125;28;9330;-55
2023/06/10 05:17:35;;;;;;;;;;;;;;;29.60;33.25;93895.56;4983186;28;7141;-55
2023/06/10 05:20:34;;;;;;;;;;;;;;;29.62;32.84;93906.84;4965292;28;9150;-55
2023/06/10 05:23:19;;;;;;;;;;;;;;;29.62;32.78;93901.28;4928772;28;7140;-55
2023/06/10 05:25:54;;;;;;;;;;;;;;;29.62;33.53;93900.56;4939785;28;7155;-56
2023/06/10 05:28:29;;;;;;;;;;;;;;;29.60;33.59;93903.88;4943332;28;7478;-55
2023/06/10 05:31:11;;;;;;;;;;;;;;;29.59;33.17;93901.66;4946068;28;7042;-54
2023/06/10 05:33:37;;;;;;;;;;;;;;;29.60;32.71;93903.88;4943359;28;7257;-55
2023/06/10 05:36:11;;;;;;;;;;;;;;;29.60;33.72;93909.41;4923881;28;7081;-55
2023/06/10 05:38:37;;;;;;;;;;;;;;;29.58;33.77;93909.22;4945957;28;9399;-55
2023/06/10 05:41:03;;;;;;;;;;;;;;;29.60;33.05;93917.72;4958257;28;7029;-55
2023/06/10 05:43:29;;;;;;;;;;;;;;;29.61;33.04;93908.16;4940799;28;9309;-55
2023/06/10 05:45:58;;;;;;;;;;;;;;;29.66;32.79;93912.03;4949559;28;7298;-55
2023/06/10 05:48:34;;;;;;;;;;;;;;;29.66;33.42;93912.03;4956612;28;9315;-55
2023/06/10 05:51:13;;;;;;;;;;;;;;;29.68;33.44;93915.00;4964477;28;7482;-54
2023/06/10 05:53:48;;;;;;;;;;;;;;;29.70;33.73;93909.66;4968559;28;7300;-54
2023/06/10 05:56:16;;;;;;;;;;;;;;;29.71;32.58;93908.38;4965435;28;7384;-54
2023/06/10 05:58:41;;;;;;;;;;;;;;;29.72;33.31;93918.16;4986415;28;8730;-55
2023/06/10 06:01:07;;;;;;;;;;;;;;;29.70;33.06;93915.94;5018217;28;7173;-55
2023/06/10 06:03:33;;;;;;;;;;;;;;;29.71;33.15;93916.69;4996530;28;9040;-55
2023/06/10 06:06:02;;;;;;;;;;;;;;;29.72;33.37;93918.91;5002808;28;8919;-55
2023/06/10 06:08:31;;;;;;;;;;;;;;;29.72;33.05;93918.91;5003812;28;7215;-55
2023/06/10 06:11:06;;;;;;;;;;;;;;;29.70;33.39;93912.41;5006240;28;7427;-54
2023/06/10 06:13:38;;;;;;;;;;;;;;;29.70;33.59;93918.72;5022656;28;7370;-55
2023/06/10 06:16:06;;;;;;;;;;;;;;;29.73;33.14;93922.41;5006475;28;8771;-55
2023/06/10 06:18:48;;;;;;;;;;;;;;;29.75;33.11;93917.09;5010089;28;6991;-55
2023/06/10 06:21:15;;;;;;;;;;;;;;;29.76;33.15;93918.56;5017644;28;7290;-57
2023/06/10 06:23:49;;;;;;;;;;;;;;;29.74;33.25;93916.34;5009155;28;7215;-57
2023/06/10 06:26:15;;;;;;;;;;;;;;;29.75;33.50;93917.09;5001072;28;7394;-57
2023/06/10 06:28:57;;;;;;;;;;;;;;;29.78;33.90;93918.75;5007525;28;7022;-56
2023/06/10 06:31:36;;;;;;;;;;;;;;;29.76;32.97;93918.56;5001327;28;7272;-57
2023/06/10 06:34:13;;;;;;;;;;;;;;;29.74;33.70;93912.81;5013465;28;7191;-56
2023/06/10 06:36:42;;;;;;;;;;;;;;;29.77;32.87;93917.28;5004108;28;7060;-56
2023/06/10 06:39:13;;;;;;;;;;;;;;;29.78;33.88;93921.53;5010902;28;9465;-56
2023/06/10 06:41:45;;;;;;;;;;;;;;;29.79;33.33;93914.69;4996757;28;6980;-56
2023/06/10 06:44:41;;;;;;;;;;;;;;;29.79;33.04;93921.00;5015396;28;9114;-56
2023/06/10 06:47:09;;;;;;;;;;;;;;;29.79;34.30;93920.25;5021354;28;7048;-56
2023/06/10 06:49:42;;;;;;;;;;;;;;;29.78;33.02;93913.94;5003447;28;7450;-56
2023/06/10 06:52:22;;;;;;;;;;;;;;;29.78;33.84;93910.44;5003491;28;7578;-56
2023/06/10 06:54:49;;;;;;;;;;;;;;;29.80;33.27;93913.41;5013287;28;9313;-56
2023/06/10 06:57:15;;;;;;;;;;;;;;;29.81;33.47;93912.13;5004523;28;7409;-56
2023/06/10 06:59:48;;;;;;;;;;;;;;;29.83;34.15;93917.09;5010985;28;7126;-56
2023/06/10 07:02:43;;;;;;;;;;;;;;;29.83;33.62;93911.56;5011437;28;8249;-56
2023/06/10 07:05:40;;;;;;;;;;;;;;;29.82;32.86;93916.34;5005498;28;7038;-56
2023/06/10 07:08:11;;;;;;;;;;;;;;;29.80;33.00;93907.84;4936865;28;7229;-56
2023/06/10 07:11:07;;;;;;;;;;;;;;;29.82;33.08;93916.34;4962301;28;9241;-56
2023/06/10 07:13:48;;;;;;;;;;;;;;;29.80;32.96;93911.38;4903418;29;7030;-56
2023/06/10 07:16:25;;;;;;;;;;;;;;;29.83;33.04;93908.78;4897510;29;7729;-56
2023/06/10 07:19:02;;;;;;;;;;;;;;;29.84;33.25;93915.81;4903505;29;7234;-56
2023/06/10 07:21:40;;;;;;;;;;;;;;;29.86;33.76;93910.47;4902699;29;7063;-56
2023/06/10 07:24:39;;;;;;;;;;;;;;;29.85;33.81;93915.25;4901235;29;7188;-55
2023/06/10 07:27:13;;;;;;;;;;;;;;;29.84;33.89;93919.31;4902819;29;6997;-56
2023/06/10 07:30:00;;;;;;;;;;;;;;;29.85;33.20;93917.28;4896408;29;7266;-56
2023/06/10 07:32:35;;;;;;;;;;;;;;;29.84;33.58;93919.31;4884816;29;7153;-56
2023/06/10 07:35:16;;;;;;;;;;;;;;;29.85;33.53;93915.25;4899906;29;8888;-57
2023/06/10 07:37:51;;;;;;;;;;;;;;;29.83;33.60;93925.41;4897365;29;9807;-56
2023/06/10 07:40:28;;;;;;;;;;;;;;;29.85;33.59;93922.84;4897642;29;7269;-56
2023/06/10 07:43:09;;;;;;;;;;;;;;;29.85;34.11;93929.13;4897357;29;8026;-56
2023/06/10 07:45:35;;;;;;;;;;;;;;;29.84;35.09;93927.63;4934171;28;7254;-56
2023/06/10 07:48:02;;;;;;;;;;;;;;;29.85;34.42;93920.06;4937064;28;7200;-56
2023/06/10 07:50:28;;;;;;;;;;;;;;;29.85;35.20;93920.81;4985592;28;8743;-56
2023/06/10 07:53:06;;;;;;;;;;;;;;;29.87;33.85;93926.53;5005555;28;7205;-56
2023/06/10 07:55:41;;;;;;;;;;;;;;;29.88;33.95;93925.25;5007124;28;7106;-57
2023/06/10 07:58:12;;;;;;;;;;;;;;;29.90;33.55;93928.22;5010110;28;7283;-56
2023/06/10 08:01:29;;;;;;;;;;;;;;;29.91;33.81;93921.38;5008170;28;7295;-56
2023/06/10 08:04:06;;;;;;;;;;;;;;;29.87;34.37;93929.31;5026433;28;8581;-56
2023/06/10 08:07:07;;;;;;;;;;;;;;;29.85;34.28;93926.34;5006150;28;7293;-57
2023/06/10 08:09:53;;;;;;;;;;;;;;;29.92;34.46;93931.19;5003793;28;8242;-55
2023/06/10 08:12:20;;;;;;;;;;;;;;;29.92;33.71;93928.41;5008654;28;7063;-56
2023/06/10 08:15:29;;;;;;;;;;;;;;;29.91;34.59;93931.72;5001272;28;7388;-56
2023/06/10 08:18:08;;;;;;;;;;;;;;;29.91;34.37;93938.00;5022043;28;8416;-56
2023/06/10 08:20:47;;;;;;;;;;;;;;;29.90;34.60;93931.00;5007920;28;7278;-56
2023/06/10 08:23:15;;;;;;;;;;;;;;;29.92;34.76;93924.91;5019358;28;7277;-56
2023/06/10 08:25:50;;;;;;;;;;;;;;;29.95;33.64;93921.75;5018671;28;7004;-56
2023/06/10 08:28:23;;;;;;;;;;;;;;;29.97;34.89;93924.00;5006661;28;8974;-56
2023/06/10 08:30:59;;;;;;;;;;;;;;;29.96;34.06;93923.25;5017381;28;7700;-56
2023/06/10 08:33:25;;;;;;;;;;;;;;;29.99;34.33;93922.16;5008216;28;9001;-56
2023/06/10 08:35:55;;;;;;;;;;;;;;;29.98;34.08;93922.69;5020822;28;7094;-56
2023/06/10 08:38:27;;;;;;;;;;;;;;;29.98;34.65;93920.66;5024446;28;8953;-56
2023/06/10 08:41:05;;;;;;;;;;;;;;;29.95;34.20;93921.75;5017500;28;7230;-56
2023/06/10 08:44:11;;;;;;;;;;;;;;;29.99;34.37;93921.41;5011308;28;9268;-56
2023/06/10 08:46:38;;;;;;;;;;;;;;;30.00;34.86;93912.53;5005319;28;7460;-56
2023/06/10 08:49:20;;;;;;;;;;;;;;;29.99;34.42;93916.59;5018096;28;7257;-56
2023/06/10 08:51:57;;;;;;;;;;;;;;;30.04;34.54;93920.47;5010352;28;9012;-56
2023/06/10 08:54:35;;;;;;;;;;;;;;;30.05;34.16;93922.72;5009542;28;9476;-56
2023/06/10 08:57:06;;;;;;;;;;;;;;;30.06;33.98;93926.97;5020950;28;7064;-56
2023/06/10 08:59:33;;;;;;;;;;;;;;;30.06;33.76;93921.41;5005803;28;9284;-56
2023/06/10 09:02:04;;;;;;;;;;;;;;;30.07;34.38;93917.34;5004175;28;7268;-56
2023/06/10 09:04:33;;;;;;;;;;;;;;;30.07;34.81;93917.34;5008692;28;9405;-56
2023/06/10 09:07:11;;;;;;;;;;;;;;;30.07;33.57;93922.91;5003057;28;8437;-56
2023/06/10 09:09:45;;;;;;;;;;;;;;;30.07;33.91;93913.84;5004997;28;7353;-56
2023/06/10 09:12:16;;;;;;;;;;;;;;;30.09;33.88;93920.31;5004752;28;8226;-56
2023/06/10 09:18:37;;;;;;;;;;;;;;;30.12;34.65;93919.22;4986459;28;7538;-56
2023/06/10 09:21:03;;;;;;;;;;;;;;;30.11;34.15;93917.72;4974036;28;7032;-56
2023/06/10 09:23:30;;;;;;;;;;;;;;;30.12;34.35;93919.22;4977819;28;7183;-56
2023/06/10 09:26:03;;;;;;;;;;;;;;;30.12;33.61;93916.44;4986775;28;9057;-56
2023/06/10 09:28:43;;;;;;;;;;;;;;;30.15;34.58;93920.13;4973797;28;7261;-56
2023/06/10 09:31:11;;;;;;;;;;;;;;;30.15;33.46;93914.56;4972271;28;7035;-56
2023/06/10 09:33:50;;;;;;;;;;;;;;;30.16;34.47;93914.03;4970006;28;7502;-56
2023/06/10 09:36:22;;;;;;;;;;;;;;;30.17;34.21;93918.28;4987407;28;7391;-56
2023/06/10 09:38:53;;;;;;;;;;;;;;;30.17;33.93;93915.50;4973116;28;7168;-56
2023/06/10 09:41:40;;;;;;;;;;;;;;;30.17;33.43;93912.75;4979260;28;9023;-56
2023/06/10 09:44:24;;;;;;;;;;;;;;;30.18;33.83;93917.00;4988310;28;8056;-56
2023/06/10 09:46:54;;;;;;;;;;;;;;;30.19;33.92;93909.44;4989728;28;7030;-56
2023/06/10 09:49:30;;;;;;;;;;;;;;;30.18;33.50;93911.47;4990342;28;7154;-55
2023/06/10 09:51:58;;;;;;;;;;;;;;;30.18;33.60;93910.72;4984818;28;9374;-56
2023/06/10 09:54:32;;;;;;;;;;;;;;;30.20;33.90;93910.91;4995933;28;9467;-56
2023/06/10 09:57:09;;;;;;;;;;;;;;;30.19;33.87;93910.16;5008072;28;8208;-56
2023/06/10 10:00:10;;;;;;;;;;;;;;;30.21;34.11;93915.16;5010004;28;7362;-56
2023/06/10 10:02:53;;;;;;;;;;;;;;;30.22;34.04;93916.63;4987996;28;7167;-56
2023/06/10 10:05:56;;;;;;;;;;;;;;;30.23;33.22;93912.56;4974410;28;9067;-56
2023/06/10 10:08:32;;;;;;;;;;;;;;;30.22;34.18;93908.31;4988240;28;7171;-56
2023/06/10 10:11:11;;;;;;;;;;;;;;;30.22;34.08;93911.09;4989302;28;7489;-56
2023/06/10 10:13:39;;;;;;;;;;;;;;;30.20;33.57;93903.31;4988803;28;7266;-56
2023/06/10 10:16:33;;;;;;;;;;;;;;;30.23;34.01;93912.56;4987648;28;7102;-56
2023/06/10 10:19:16;;;;;;;;;;;;;;;30.23;34.50;93904.97;4990469;28;9074;-55
2023/06/10 10:22:18;;;;;;;;;;;;;;;30.23;34.42;93902.19;4972788;28;7037;-56
2023/06/10 10:24:55;;;;;;;;;;;;;;;30.21;34.11;93896.47;4972401;28;9264;-56
2023/06/10 10:27:40;;;;;;;;;;;;;;;30.24;34.05;93897.41;4970306;28;8678;-56
2023/06/10 10:30:10;;;;;;;;;;;;;;;30.24;33.87;93903.69;4970586;28;7254;-56
2023/06/10 10:32:45;;;;;;;;;;;;;;;30.23;33.50;93893.16;4986477;28;7041;-56
2023/06/10 10:35:23;;;;;;;;;;;;;;;30.27;33.85;93897.03;4972288;28;8693;-56
2023/06/10 10:38:13;;;;;;;;;;;;;;;30.28;34.12;93898.50;4992029;28;7103;-56
2023/06/10 10:40:55;;;;;;;;;;;;;;;30.28;33.39;93898.50;5010697;28;8241;-56
2023/06/10 10:43:24;;;;;;;;;;;;;;;30.29;34.28;93899.25;5027790;28;9050;-56
2023/06/10 10:46:11;;;;;;;;;;;;;;;30.30;33.76;93903.50;5008027;28;7719;-56
2023/06/10 10:48:38;;;;;;;;;;;;;;;30.32;34.13;93903.75;5004664;28;9221;-56
2023/06/10 10:51:11;;;;;;;;;;;;;;;30.32;33.97;93901.69;5021821;28;7087;-56
2023/06/10 10:53:39;;;;;;;;;;;;;;;30.33;33.73;93894.09;5003900;28;7271;-56
2023/06/10 10:56:08;;;;;;;;;;;;;;;30.33;34.12;93894.84;5004148;28;7174;-56
2023/06/10 10:58:34;;;;;;;;;;;;;;;30.34;33.89;93884.50;5000803;28;7620;-56
2023/06/10 11:01:14;;;;;;;;;;;;;;;30.37;34.25;93888.94;5004146;28;7291;-56
2023/06/10 11:03:46;;;;;;;;;;;;;;;30.35;33.37;93897.81;5015383;28;7262;-55
2023/06/10 11:06:18;;;;;;;;;;;;;;;30.39;33.42;93897.44;5018453;28;7155;-55
2023/06/10 11:08:44;;;;;;;;;;;;;;;30.39;33.60;93903.72;5001798;28;7072;-56
2023/06/10 11:11:27;;;;;;;;;;;;;;;30.38;33.29;93896.69;5014917;28;9552;-56
2023/06/10 11:14:04;;;;;;;;;;;;;;;30.39;33.26;93887.06;5001431;28;9381;-56
2023/06/10 11:16:40;;;;;;;;;;;;;;;30.42;34.06;93890.78;5025520;28;7207;-55
2023/06/10 11:19:06;;;;;;;;;;;;;;;30.42;33.32;93874.88;5010211;28;7169;-56
2023/06/10 11:22:08;;;;;;;;;;;;;;;30.44;34.14;93891.72;5011308;28;7117;-56
2023/06/10 11:24:35;;;;;;;;;;;;;;;30.44;34.32;93888.94;5006477;28;8636;-56
2023/06/10 11:27:47;;;;;;;;;;;;;;;30.46;32.98;93891.91;5013889;28;7291;-56
2023/06/10 11:30:34;;;;;;;;;;;;;;;30.47;33.57;93890.59;4999534;28;6949;-56
2023/06/10 11:33:35;;;;;;;;;;;;;;;30.45;34.14;93884.84;4992659;28;9702;-56
2023/06/10 11:36:20;;;;;;;;;;;;;;;30.46;34.10;93893.91;4931330;28;7205;-56
2023/06/10 11:39:06;;;;;;;;;;;;;;;30.46;34.11;93889.13;4935628;28;7469;-56
2023/06/10 11:41:34;;;;;;;;;;;;;;;30.44;33.96;93883.38;4934680;28;9238;-56
2023/06/10 11:44:08;;;;;;;;;;;;;;;30.48;34.43;93880.22;4950064;28;9146;-56
2023/06/10 11:46:52;;;;;;;;;;;;;;;30.49;33.85;93868.56;4936244;28;7136;-56
2023/06/10 11:50:03;;;;;;;;;;;;;;;30.54;34.87;93878.00;4950807;28;9083;-56
2023/06/10 11:52:41;;;;;;;;;;;;;;;30.58;34.71;93872.09;4940907;28;7263;-57
2023/06/10 11:55:09;;;;;;;;;;;;;;;30.57;34.29;93862.28;4951223;28;8724;-56
2023/06/10 11:57:40;;;;;;;;;;;;;;;30.62;34.79;93866.91;4950062;28;9567;-56
2023/06/10 12:00:43;;;;;;;;;;;;;;;30.63;33.93;93871.88;4934664;28;7016;-56
2023/06/10 12:03:22;;;;;;;;;;;;;;;30.62;34.76;93872.47;4894334;29;7307;-56
2023/06/10 12:06:00;;;;;;;;;;;;;;;30.60;33.60;93863.94;4880370;29;8733;-56
2023/06/10 12:08:27;;;;;;;;;;;;;;;30.59;34.44;93870.78;4894546;29;7604;-57
2023/06/10 12:11:05;;;;;;;;;;;;;;;30.59;34.62;93860.44;4894370;29;7320;-57
2023/06/10 12:13:33;;;;;;;;;;;;;;;30.60;33.70;93858.41;4931128;28;7078;-56
2023/06/10 12:16:33;;;;;;;;;;;;;;;30.60;34.14;93866.72;4933056;28;7031;-56
2023/06/10 12:19:19;;;;;;;;;;;;;;;30.63;33.06;93860.78;4933090;28;7034;-56
2023/06/10 12:22:02;;;;;;;;;;;;;;;30.60;34.14;93858.41;4933661;28;9086;-56
2023/06/10 12:25:02;;;;;;;;;;;;;;;30.61;33.13;93857.84;4929772;29;9064;-57
2023/06/10 12:28:02;;;;;;;;;;;;;;;30.59;32.94;93857.66;4914711;28;6980;-56
2023/06/10 12:30:31;;;;;;;;;;;;;;;30.59;32.59;93856.91;4897128;29;7666;-57
2023/06/10 12:33:00;;;;;;;;;;;;;;;30.56;32.83;93864.31;4897050;29;8123;-57
2023/06/10 12:35:28;;;;;;;;;;;;;;;30.56;32.75;93852.47;4912684;29;8916;-57
2023/06/10 12:38:00;;;;;;;;;;;;;;;30.57;32.79;93851.16;4897720;29;9052;-56
2023/06/10 12:40:48;;;;;;;;;;;;;;;30.57;32.68;93848.41;4994213;28;9439;-56
2023/06/10 12:43:39;;;;;;;;;;;;;;;30.59;33.27;93851.34;5010254;28;7075;-57
2023/06/10 12:46:10;;;;;;;;;;;;;;;30.61;32.37;93840.44;5002079;28;7245;-56
2023/06/10 12:48:36;;;;;;;;;;;;;;;30.59;32.98;93843.78;4991567;28;7519;-57
2023/06/10 12:51:14;;;;;;;;;;;;;;;30.60;33.00;93844.53;4984496;28;8662;-57
2023/06/10 12:53:52;;;;;;;;;;;;;;;30.57;32.37;93838.03;4992592;28;7908;-57
2023/06/10 12:56:19;;;;;;;;;;;;;;;30.57;32.89;93838.03;5001605;28;8347;-57
2023/06/10 12:58:56;;;;;;;;;;;;;;;30.59;33.16;93838.22;4989090;28;7341;-56
2023/06/10 13:01:23;;;;;;;;;;;;;;;30.56;33.07;93831.00;5005778;28;7197;-56
2023/06/10 13:03:59;;;;;;;;;;;;;;;30.57;31.88;93842.84;4989319;28;7599;-56
2023/06/10 13:06:46;;;;;;;;;;;;;;;30.60;33.20;93836.19;5000963;28;8690;-56
2023/06/10 13:09:42;;;;;;;;;;;;;;;30.61;32.56;93823.78;5022309;28;7595;-57
2023/06/10 13:12:14;;;;;;;;;;;;;;;30.59;32.54;93826.38;5015556;28;7328;-56
2023/06/10 13:14:53;;;;;;;;;;;;;;;30.59;32.14;93826.38;5018389;28;8772;-56
2023/06/10 13:17:40;;;;;;;;;;;;;;;30.56;33.06;93821.94;5012589;28;7038;-56
2023/06/10 13:20:18;;;;;;;;;;;;;;;30.59;32.71;93820.81;4986288;28;9439;-56
2023/06/10 13:22:55;;;;;;;;;;;;;;;30.61;32.13;93821.00;5016963;28;9260;-56
2023/06/10 13:25:30;;;;;;;;;;;;;;;30.61;32.33;93818.97;4987767;28;7197;-57
2023/06/10 13:27:57;;;;;;;;;;;;;;;30.61;32.37;93818.97;5005787;28;7454;-57
2023/06/10 13:30:33;;;;;;;;;;;;;;;30.61;33.27;93809.91;4987249;28;9121;-57
2023/06/10 13:33:01;;;;;;;;;;;;;;;30.64;33.13;93808.78;4996055;28;7305;-56
2023/06/10 13:35:29;;;;;;;;;;;;;;;30.64;32.99;93808.78;5015472;28;9150;-57
2023/06/10 13:37:56;;;;;;;;;;;;;;;30.63;32.58;93813.59;5016300;28;7229;-56
2023/06/10 13:40:58;;;;;;;;;;;;;;;30.63;32.80;93805.28;5018421;28;7041;-56
2023/06/10 13:43:39;;;;;;;;;;;;;;;30.60;32.56;93809.19;5004393;28;7497;-56
2023/06/10 13:46:23;;;;;;;;;;;;;;;30.55;33.59;93804.56;4984132;28;7569;-57
2023/06/10 13:48:49;;;;;;;;;;;;;;;30.54;33.21;93798.25;5008089;28;7313;-57
2023/06/10 13:51:23;;;;;;;;;;;;;;;30.56;32.73;93802.53;5010103;28;9032;-56